createdAt,value
2023-12-23T00:02:19.232Z,8.40
2023-12-23T00:07:40.731Z,8.40
2023-12-23T00:12:46.117Z,8.40
2023-12-23T00:17:50.981Z,8.40
2023-12-23T00:22:57.581Z,8.40
2023-12-23T00:28:02.786Z,8.40
2023-12-23T00:33:11.616Z,8.40
2023-12-23T00:38:17.972Z,8.40
2023-12-23T00:43:22.820Z,8.40
2023-12-23T00:48:27.012Z,8.40
2023-12-23T00:53:32.683Z,8.40
2023-12-23T00:58:36.908Z,8.40
2023-12-23T01:03:43.956Z,8.40
2023-12-23T01:08:49.908Z,8.40
2023-12-23T01:13:54.307Z,8.40
2023-12-23T01:19:05.135Z,8.40
2023-12-23T01:24:10.904Z,8.50
2023-12-23T01:29:30.000Z,8.50
2023-12-23T01:34:40.768Z,8.50
2023-12-23T01:39:47.015Z,8.50
2023-12-23T01:44:51.429Z,8.50
2023-12-23T01:49:55.473Z,8.50
2023-12-23T01:55:03.702Z,8.40
2023-12-23T02:00:10.336Z,8.40
2023-12-23T02:05:19.365Z,8.50
2023-12-23T02:10:25.696Z,8.50
2023-12-23T02:15:32.065Z,8.50
2023-12-23T02:20:36.470Z,8.50
2023-12-23T02:25:42.610Z,8.50
2023-12-23T02:30:48.622Z,8.50
2023-12-23T02:35:54.479Z,8.50
2023-12-23T02:41:00.118Z,8.50
2023-12-23T02:46:04.739Z,8.50
2023-12-23T02:51:09.017Z,8.50
2023-12-23T02:56:14.942Z,8.50
2023-12-23T03:01:21.808Z,8.50
2023-12-23T03:06:40.842Z,8.50
2023-12-23T03:11:46.303Z,8.50
2023-12-23T03:16:50.732Z,8.50
2023-12-23T03:21:54.691Z,8.50
2023-12-23T03:27:00.424Z,8.50
2023-12-23T03:32:09.578Z,8.50
2023-12-23T03:37:14.145Z,8.50
2023-12-23T03:42:43.935Z,8.50
2023-12-23T03:47:48.362Z,8.50
2023-12-23T03:52:53.592Z,8.50
2023-12-23T03:57:59.351Z,8.60
2023-12-23T04:03:11.628Z,8.60
2023-12-23T04:08:17.999Z,8.50
2023-12-23T04:13:23.765Z,8.60
2023-12-23T04:18:28.098Z,8.60
2023-12-23T04:23:32.769Z,8.70
2023-12-23T04:28:49.082Z,8.80
2023-12-23T04:33:53.809Z,8.90
2023-12-23T04:38:58.516Z,9.00
2023-12-23T04:44:05.025Z,9.00
2023-12-23T04:49:09.289Z,9.10
2023-12-23T04:54:17.791Z,9.10
2023-12-23T04:59:23.908Z,9.20
2023-12-23T05:04:46.246Z,9.20
2023-12-23T05:09:54.827Z,9.30
2023-12-23T05:15:04.112Z,9.30
2023-12-23T05:20:11.026Z,9.40
2023-12-23T05:25:15.657Z,9.40
2023-12-23T05:30:21.540Z,9.40
2023-12-23T05:35:25.952Z,9.40
2023-12-23T05:40:31.226Z,9.40
2023-12-23T05:45:37.358Z,9.50
2023-12-23T05:50:41.747Z,9.50
2023-12-23T05:55:45.729Z,9.40
2023-12-23T06:00:51.929Z,9.40
2023-12-23T06:05:56.577Z,9.40
2023-12-23T06:11:02.427Z,9.40
2023-12-23T06:16:19.435Z,9.40
2023-12-23T06:21:23.592Z,9.50
2023-12-23T06:26:28.118Z,9.50
2023-12-23T06:31:36.542Z,9.50
2023-12-23T06:36:40.387Z,9.50
2023-12-23T06:41:48.146Z,9.50
2023-12-23T06:46:54.145Z,9.50
2023-12-23T06:51:58.300Z,9.50
2023-12-23T06:57:02.499Z,9.50
2023-12-23T07:02:08.024Z,9.50
2023-12-23T07:07:12.556Z,9.50
2023-12-23T07:12:18.126Z,9.50
2023-12-23T07:17:37.909Z,9.50
2023-12-23T07:22:45.661Z,9.40
2023-12-23T07:27:51.462Z,9.50
2023-12-23T07:32:57.662Z,9.70
2023-12-23T07:38:01.901Z,9.70
2023-12-23T07:43:06.109Z,9.70
2023-12-23T07:48:11.652Z,9.60
2023-12-23T07:53:15.844Z,9.60
2023-12-23T07:58:19.811Z,9.60
2023-12-23T08:03:26.539Z,9.60
2023-12-23T08:08:30.943Z,9.60
2023-12-23T08:14:08.188Z,9.60
2023-12-23T08:19:15.850Z,9.60
2023-12-23T08:24:24.229Z,9.60
2023-12-23T08:29:28.802Z,9.70
2023-12-23T08:34:34.196Z,9.70
2023-12-23T08:39:46.014Z,9.60
2023-12-23T08:44:51.005Z,9.60
2023-12-23T08:49:56.568Z,9.70
2023-12-23T08:55:00.489Z,9.70
2023-12-23T09:00:11.861Z,9.70
2023-12-23T09:05:18.820Z,9.80
2023-12-23T09:10:23.925Z,9.80
2023-12-23T09:15:27.903Z,9.80
2023-12-23T09:20:35.873Z,9.80
2023-12-23T09:25:42.259Z,9.90
2023-12-23T09:30:46.660Z,9.90
2023-12-23T09:35:52.413Z,9.90
2023-12-23T09:41:00.229Z,10.00
2023-12-23T09:46:06.901Z,10.00
2023-12-23T09:51:16.183Z,10.00
2023-12-23T09:56:21.507Z,10.10
2023-12-23T10:01:25.912Z,10.10
2023-12-23T10:06:32.575Z,10.10
2023-12-23T10:12:02.207Z,10.20
2023-12-23T10:17:06.633Z,10.20
2023-12-23T10:22:12.054Z,10.20
2023-12-23T10:27:18.343Z,10.30
2023-12-23T10:32:27.737Z,10.30
2023-12-23T10:37:36.600Z,10.30
2023-12-23T10:42:45.245Z,10.30
2023-12-23T10:47:52.683Z,10.30
2023-12-23T10:53:20.213Z,10.30
2023-12-23T10:58:31.071Z,10.20
2023-12-23T11:03:36.852Z,10.20
2023-12-23T11:08:43.582Z,10.20
2023-12-23T11:14:08.408Z,10.10
2023-12-23T11:19:13.376Z,10.10
2023-12-23T11:24:41.789Z,10.00
2023-12-23T11:29:49.904Z,10.00
2023-12-23T11:34:55.860Z,10.00
2023-12-23T11:40:17.763Z,10.00
2023-12-23T11:45:24.488Z,10.00
2023-12-23T11:50:30.665Z,10.00
2023-12-23T11:55:39.289Z,10.00
2023-12-23T12:00:43.777Z,10.00
2023-12-23T12:05:48.233Z,10.00
2023-12-23T12:11:00.762Z,10.00
2023-12-23T12:16:14.627Z,10.00
2023-12-23T12:21:22.851Z,10.00
2023-12-23T12:26:28.808Z,10.00
2023-12-23T12:31:34.432Z,10.10
2023-12-23T12:36:39.690Z,10.10
2023-12-23T12:41:47.308Z,10.20
2023-12-23T12:47:00.241Z,10.20
2023-12-23T12:52:04.867Z,10.20
2023-12-23T12:57:10.452Z,10.20
2023-12-23T13:02:16.562Z,10.20
2023-12-23T13:07:26.909Z,10.30
2023-12-23T13:12:35.042Z,10.30
2023-12-23T13:17:42.964Z,10.40
2023-12-23T13:22:49.020Z,10.40
2023-12-23T13:28:01.613Z,10.40
2023-12-23T13:33:05.880Z,10.50
2023-12-23T13:38:10.496Z,10.50
2023-12-23T13:43:16.303Z,10.60
2023-12-23T13:48:20.080Z,10.60
2023-12-23T13:53:23.945Z,10.60
2023-12-23T13:58:29.059Z,10.70
2023-12-23T14:03:33.048Z,10.70
2023-12-23T14:08:39.889Z,10.80
2023-12-23T14:13:46.594Z,10.80
2023-12-23T14:18:50.480Z,10.80
2023-12-23T14:23:54.590Z,10.80
2023-12-23T14:29:07.351Z,10.90
2023-12-23T14:34:11.358Z,10.90
2023-12-23T14:39:16.098Z,10.90
2023-12-23T14:44:24.527Z,10.90
2023-12-23T14:49:32.317Z,10.90
2023-12-23T14:54:36.092Z,10.80
2023-12-23T14:59:42.264Z,10.80
2023-12-23T15:04:48.074Z,10.90
2023-12-23T15:10:15.539Z,10.90
2023-12-23T15:15:36.788Z,10.90
2023-12-23T15:20:43.731Z,10.90
2023-12-23T15:25:47.478Z,10.90
2023-12-23T15:30:56.394Z,10.90
2023-12-23T15:36:06.112Z,10.90
2023-12-23T15:41:21.654Z,10.90
2023-12-23T15:46:31.276Z,10.80
2023-12-23T15:51:35.281Z,10.80
2023-12-23T15:56:48.042Z,10.80
2023-12-23T16:01:53.332Z,10.80
2023-12-23T16:06:58.444Z,10.80
2023-12-23T16:12:02.501Z,10.70
2023-12-23T16:17:15.723Z,10.70
2023-12-23T16:22:20.627Z,10.70
2023-12-23T16:27:28.132Z,10.60
2023-12-23T16:32:48.084Z,10.70
2023-12-23T16:38:01.841Z,10.60
2023-12-23T16:48:20.125Z,10.40
2023-12-23T16:53:30.342Z,10.30
2023-12-23T16:58:34.939Z,10.20
2023-12-23T17:03:40.726Z,10.20
2023-12-23T17:08:44.705Z,10.20
2023-12-23T17:13:49.709Z,10.10
2023-12-23T17:19:01.649Z,10.10
2023-12-23T17:24:06.995Z,10.00
2023-12-23T17:29:15.945Z,10.00
2023-12-23T17:34:23.220Z,10.00
2023-12-23T17:39:27.972Z,10.00
2023-12-23T17:44:32.066Z,10.00
2023-12-23T17:49:40.056Z,10.00
2023-12-23T17:54:46.039Z,10.00
2023-12-23T17:59:50.602Z,10.00
2023-12-23T18:04:56.666Z,10.00
2023-12-23T18:10:00.739Z,10.00
2023-12-23T18:15:05.003Z,10.00
2023-12-23T18:20:14.106Z,10.00
2023-12-23T18:25:18.598Z,10.00
2023-12-23T18:30:22.686Z,10.00
2023-12-23T18:35:28.820Z,10.00
2023-12-23T18:40:32.816Z,10.00
2023-12-23T18:45:37.523Z,10.00
2023-12-23T18:50:44.056Z,10.00
2023-12-23T18:55:49.209Z,10.00
2023-12-23T19:00:55.456Z,10.00
2023-12-23T19:06:02.585Z,10.00
2023-12-23T19:11:08.098Z,10.10
2023-12-23T19:16:13.320Z,10.00
2023-12-23T19:21:18.810Z,10.10
2023-12-23T19:26:32.007Z,10.10
2023-12-23T19:31:56.525Z,10.10
2023-12-23T19:37:06.577Z,10.10
2023-12-23T19:42:10.749Z,10.10
2023-12-23T19:47:15.035Z,10.20
2023-12-23T19:52:20.709Z,10.20
2023-12-23T19:57:24.880Z,10.20
2023-12-23T20:02:29.387Z,10.20
2023-12-23T20:07:40.388Z,10.20
2023-12-23T20:12:46.040Z,10.20
2023-12-23T20:17:50.596Z,10.30
2023-12-23T20:22:57.464Z,10.30
2023-12-23T20:28:07.618Z,10.40
2023-12-23T20:33:12.464Z,10.40
2023-12-23T20:39:26.245Z,10.40
2023-12-23T20:44:41.747Z,10.40
2023-12-23T20:49:46.125Z,10.40
2023-12-23T20:54:52.003Z,10.40
2023-12-23T20:59:57.978Z,10.50
2023-12-23T21:05:02.826Z,10.50
2023-12-23T21:10:09.919Z,10.60
2023-12-23T21:15:21.556Z,10.60
2023-12-23T21:20:31.355Z,10.60
2023-12-23T21:25:36.936Z,10.70
2023-12-23T21:30:41.702Z,10.70
2023-12-23T21:35:49.666Z,10.60
2023-12-23T21:40:55.825Z,10.60
2023-12-23T21:45:59.938Z,10.70
2023-12-23T21:51:04.069Z,10.70
2023-12-23T21:56:30.578Z,10.70
2023-12-23T22:01:36.074Z,10.70
2023-12-23T22:06:42.852Z,10.60
2023-12-23T22:11:48.042Z,10.70
2023-12-23T22:17:02.016Z,10.70
2023-12-23T22:22:07.366Z,10.70
2023-12-23T22:27:13.251Z,10.70
2023-12-23T22:32:17.550Z,10.60
2023-12-23T22:37:22.036Z,10.60
2023-12-23T22:42:28.279Z,10.60
2023-12-23T22:47:38.470Z,10.60
2023-12-23T22:52:43.757Z,10.60
2023-12-23T22:57:49.327Z,10.60
2023-12-23T23:02:54.253Z,10.60
2023-12-23T23:08:01.673Z,10.60
2023-12-23T23:13:07.911Z,10.60
2023-12-23T23:18:28.391Z,10.60
2023-12-23T23:23:32.536Z,10.60
2023-12-23T23:34:09.102Z,10.50
2023-12-23T23:39:22.828Z,10.60
2023-12-23T23:44:28.191Z,10.50
2023-12-23T23:49:33.259Z,10.50
2023-12-23T23:54:37.287Z,10.50
2023-12-23T23:59:42.853Z,10.50
